sensor_id;sensor_type;location;lat;lon;timestamp;pressure;altitude;pressure_sealevel;temperature;humidity
53270;BME280;39159;45.634;9.420;2024-03-22T00:00:06;99333.97;;;12.04;100.00
53270;BME280;39159;45.634;9.420;2024-03-22T00:02:34;99331.22;;;12.04;100.00
53270;BME280;39159;45.634;9.420;2024-03-22T00:04:59;99321.84;;;11.96;100.00
53270;BME280;39159;45.634;9.420;2024-03-22T00:07:24;99321.00;;;11.96;100.00
53270;BME280;39159;45.634;9.420;2024-03-22T00:09:50;99331.84;;;11.87;100.00
53270;BME280;39159;45.634;9.420;2024-03-22T00:12:15;99333.69;;;11.78;100.00
53270;BME280;39159;45.634;9.420;2024-03-22T00:14:40;99323.25;;;11.80;100.00
53270;BME280;39159;45.634;9.420;2024-03-22T00:17:06;99327.63;;;11.81;100.00
53270;BME280;39159;45.634;9.420;2024-03-22T00:19:31;99329.22;;;11.82;100.00
53270;BME280;39159;45.634;9.420;2024-03-22T00:21:56;99333.38;;;11.79;100.00
53270;BME280;39159;45.634;9.420;2024-03-22T00:24:22;99338.34;;;11.77;100.00
53270;BME280;39159;45.634;9.420;2024-03-22T00:26:47;99334.00;;;11.76;100.00
53270;BME280;39159;45.634;9.420;2024-03-22T00:29:13;99329.66;;;11.75;100.00
53270;BME280;39159;45.634;9.420;2024-03-22T00:31:38;99330.44;;;11.76;100.00
53270;BME280;39159;45.634;9.420;2024-03-22T00:34:03;99340.00;;;11.78;100.00
53270;BME280;39159;45.634;9.420;2024-03-22T00:36:29;99340.06;;;11.73;100.00
53270;BME280;39159;45.634;9.420;2024-03-22T00:38:54;99337.25;;;11.65;100.00
53270;BME280;39159;45.634;9.420;2024-03-22T00:41:19;99334.50;;;11.65;100.00
53270;BME280;39159;45.634;9.420;2024-03-22T00:43:45;99337.75;;;11.67;100.00
53270;BME280;39159;45.634;9.420;2024-03-22T00:46:10;99334.22;;;11.66;100.00
53270;BME280;39159;45.634;9.420;2024-03-22T00:48:35;99340.50;;;11.67;100.00
53270;BME280;39159;45.634;9.420;2024-03-22T00:51:01;99337.97;;;11.70;100.00
53270;BME280;39159;45.634;9.420;2024-03-22T00:53:26;99337.34;;;11.73;100.00
53270;BME280;39159;45.634;9.420;2024-03-22T00:55:53;99341.31;;;11.67;100.00
53270;BME280;39159;45.634;9.420;2024-03-22T00:58:19;99334.22;;;11.66;100.00
53270;BME280;39159;45.634;9.420;2024-03-22T01:00:44;99344.94;;;11.62;100.00
53270;BME280;39159;45.634;9.420;2024-03-22T01:03:10;99344.88;;;11.54;100.00
53270;BME280;39159;45.634;9.420;2024-03-22T01:05:35;99344.88;;;11.54;100.00
53270;BME280;39159;45.634;9.420;2024-03-22T01:08:01;99339.88;;;11.56;100.00
53270;BME280;39159;45.634;9.420;2024-03-22T01:10:26;99342.63;;;11.56;100.00
53270;BME280;39159;45.634;9.420;2024-03-22T01:12:52;99340.22;;;11.54;100.00
53270;BME280;39159;45.634;9.420;2024-03-22T01:15:17;99333.44;;;11.52;100.00
53270;BME280;39159;45.634;9.420;2024-03-22T01:17:43;99345.75;;;11.49;100.00
53270;BME280;39159;45.634;9.420;2024-03-22T01:20:08;99343.94;;;11.45;100.00
53270;BME280;39159;45.634;9.420;2024-03-22T01:22:34;99326.06;;;11.38;100.00
53270;BME280;39159;45.634;9.420;2024-03-22T01:24:59;99332.31;;;11.39;100.00
53270;BME280;39159;45.634;9.420;2024-03-22T01:27:25;99336.97;;;11.38;100.00
53270;BME280;39159;45.634;9.420;2024-03-22T01:29:50;99334.84;;;11.35;100.00
53270;BME280;39159;45.634;9.420;2024-03-22T01:32:15;99339.78;;;11.33;100.00
53270;BME280;39159;45.634;9.420;2024-03-22T01:34:41;99331.41;;;11.30;100.00
53270;BME280;39159;45.634;9.420;2024-03-22T01:37:06;99332.50;;;11.29;100.00
53270;BME280;39159;45.634;9.420;2024-03-22T01:39:32;99344.25;;;11.29;100.00
53270;BME280;39159;45.634;9.420;2024-03-22T01:41:57;99347.28;;;11.28;100.00
53270;BME280;39159;45.634;9.420;2024-03-22T01:44:29;99346.97;;;11.29;100.00
53270;BME280;39159;45.634;9.420;2024-03-22T01:46:56;99342.75;;;11.37;100.00
53270;BME280;39159;45.634;9.420;2024-03-22T01:49:21;99341.09;;;11.36;100.00
53270;BME280;39159;45.634;9.420;2024-03-22T01:51:48;99345.69;;;11.40;100.00
53270;BME280;39159;45.634;9.420;2024-03-22T01:54:16;99349.69;;;11.29;100.00
53270;BME280;39159;45.634;9.420;2024-03-22T01:56:42;99340.41;;;11.30;100.00
53270;BME280;39159;45.634;9.420;2024-03-22T01:59:08;99346.78;;;11.26;100.00
53270;BME280;39159;45.634;9.420;2024-03-22T02:01:35;99355.38;;;11.19;100.00
53270;BME280;39159;45.634;9.420;2024-03-22T02:04:00;99351.53;;;11.20;100.00
53270;BME280;39159;45.634;9.420;2024-03-22T02:06:26;99347.88;;;11.11;100.00
53270;BME280;39159;45.634;9.420;2024-03-22T02:08:51;99347.28;;;11.14;100.00
53270;BME280;39159;45.634;9.420;2024-03-22T02:11:16;99341.00;;;11.13;100.00
53270;BME280;39159;45.634;9.420;2024-03-22T02:13:42;99353.22;;;11.02;100.00
53270;BME280;39159;45.634;9.420;2024-03-22T02:16:11;99342.69;;;10.95;100.00
53270;BME280;39159;45.634;9.420;2024-03-22T02:18:36;99351.50;;;10.92;100.00
53270;BME280;39159;45.634;9.420;2024-03-22T02:21:02;99358.75;;;10.83;100.00
53270;BME280;39159;45.634;9.420;2024-03-22T02:23:38;99363.38;;;10.83;100.00
53270;BME280;39159;45.634;9.420;2024-03-22T02:26:04;99360.97;;;10.81;100.00
53270;BME280;39159;45.634;9.420;2024-03-22T02:28:30;99356.59;;;10.80;100.00
53270;BME280;39159;45.634;9.420;2024-03-22T02:30:57;99355.28;;;10.77;100.00
53270;BME280;39159;45.634;9.420;2024-03-22T02:33:22;99353.84;;;10.66;100.00
53270;BME280;39159;45.634;9.420;2024-03-22T02:35:49;99357.47;;;10.62;100.00
53270;BME280;39159;45.634;9.420;2024-03-22T02:38:15;99353.44;;;10.59;100.00
53270;BME280;39159;45.634;9.420;2024-03-22T02:40:43;99357.97;;;10.64;100.00
53270;BME280;39159;45.634;9.420;2024-03-22T02:43:08;99357.47;;;10.62;100.00
53270;BME280;39159;45.634;9.420;2024-03-22T02:45:34;99369.56;;;10.55;100.00
53270;BME280;39159;45.634;9.420;2024-03-22T02:47:59;99358.97;;;10.54;100.00
53270;BME280;39159;45.634;9.420;2024-03-22T02:50:24;99368.47;;;10.56;100.00
53270;BME280;39159;45.634;9.420;2024-03-22T02:52:50;99360.34;;;10.51;100.00
53270;BME280;39159;45.634;9.420;2024-03-22T02:55:15;99354.69;;;10.48;100.00
53270;BME280;39159;45.634;9.420;2024-03-22T02:57:41;99353.44;;;10.40;100.00
53270;BME280;39159;45.634;9.420;2024-03-22T03:00:06;99343.72;;;10.34;100.00
53270;BME280;39159;45.634;9.420;2024-03-22T03:02:32;99349.81;;;10.26;100.00
53270;BME280;39159;45.634;9.420;2024-03-22T03:04:57;99341.13;;;10.24;100.00
53270;BME280;39159;45.634;9.420;2024-03-22T03:07:26;99346.06;;;10.22;100.00
53270;BME280;39159;45.634;9.420;2024-03-22T03:09:53;99341.41;;;10.22;100.00
53270;BME280;39159;45.634;9.420;2024-03-22T03:12:18;99349.06;;;10.20;100.00
53270;BME280;39159;45.634;9.420;2024-03-22T03:14:43;99350.19;;;10.19;100.00
53270;BME280;39159;45.634;9.420;2024-03-22T03:17:09;99355.34;;;10.21;100.00
53270;BME280;39159;45.634;9.420;2024-03-22T03:19:34;99347.38;;;10.24;100.00
53270;BME280;39159;45.634;9.420;2024-03-22T03:21:59;99340.84;;;10.25;100.00
53270;BME280;39159;45.634;9.420;2024-03-22T03:24:25;99342.72;;;10.25;100.00
53270;BME280;39159;45.634;9.420;2024-03-22T03:26:50;99346.56;;;10.24;100.00
53270;BME280;39159;45.634;9.420;2024-03-22T03:29:15;99342.16;;;10.28;100.00
53270;BME280;39159;45.634;9.420;2024-03-22T03:31:41;99342.16;;;10.28;100.00
53270;BME280;39159;45.634;9.420;2024-03-22T03:34:06;99340.84;;;10.25;100.00
53270;BME280;39159;45.634;9.420;2024-03-22T03:36:32;99344.38;;;10.26;100.00
53270;BME280;39159;45.634;9.420;2024-03-22T03:38:57;99348.16;;;10.30;100.00
53270;BME280;39159;45.634;9.420;2024-03-22T03:41:22;99347.91;;;10.26;100.00
53270;BME280;39159;45.634;9.420;2024-03-22T03:43:48;99344.38;;;10.26;100.00
53270;BME280;39159;45.634;9.420;2024-03-22T03:46:13;99346.81;;;10.27;100.00
53270;BME280;39159;45.634;9.420;2024-03-22T03:48:38;99353.63;;;10.30;100.00
53270;BME280;39159;45.634;9.420;2024-03-22T03:51:05;99354.53;;;10.20;100.00
53270;BME280;39159;45.634;9.420;2024-03-22T03:53:30;99350.94;;;10.06;100.00
53270;BME280;39159;45.634;9.420;2024-03-22T03:55:56;99355.34;;;10.02;100.00
53270;BME280;39159;45.634;9.420;2024-03-22T03:58:21;99353.38;;;10.07;100.00
53270;BME280;39159;45.634;9.420;2024-03-22T04:00:47;99357.78;;;10.03;100.00
53270;BME280;39159;45.634;9.420;2024-03-22T04:03:12;99360.06;;;9.96;100.00
53270;BME280;39159;45.634;9.420;2024-03-22T04:05:37;99362.19;;;9.99;100.00
53270;BME280;39159;45.634;9.420;2024-03-22T04:08:03;99362.44;;;10.03;100.00
53270;BME280;39159;45.634;9.420;2024-03-22T04:10:28;99354.53;;;10.01;100.00
53270;BME280;39159;45.634;9.420;2024-03-22T04:12:54;99360.28;;;10.00;100.00
53270;BME280;39159;45.634;9.420;2024-03-22T04:15:19;99354.91;;;9.94;100.00
53270;BME280;39159;45.634;9.420;2024-03-22T04:17:44;99361.44;;;9.93;100.00
53270;BME280;39159;45.634;9.420;2024-03-22T04:20:10;99358.19;;;9.91;100.00
53270;BME280;39159;45.634;9.420;2024-03-22T04:22:36;99361.44;;;9.93;100.00
53270;BME280;39159;45.634;9.420;2024-03-22T04:25:02;99360.63;;;9.93;100.00
53270;BME280;39159;45.634;9.420;2024-03-22T04:27:27;99372.59;;;9.97;100.00
53270;BME280;39159;45.634;9.420;2024-03-22T04:29:53;99376.94;;;9.98;100.00
53270;BME280;39159;45.634;9.420;2024-03-22T04:32:18;99379.59;;;10.03;100.00
53270;BME280;39159;45.634;9.420;2024-03-22T04:34:44;99384.75;;;10.05;100.00
53270;BME280;39159;45.634;9.420;2024-03-22T04:37:09;99378.47;;;10.04;100.00
53270;BME280;39159;45.634;9.420;2024-03-22T04:39:37;99378.56;;;9.99;100.00
53270;BME280;39159;45.634;9.420;2024-03-22T04:42:02;99388.88;;;10.02;100.00
53270;BME280;39159;45.634;9.420;2024-03-22T04:44:28;99382.75;;;9.91;100.00
53270;BME280;39159;45.634;9.420;2024-03-22T04:46:54;99382.97;;;9.95;100.00
53270;BME280;39159;45.634;9.420;2024-03-22T04:49:19;99387.09;;;9.92;100.00
53270;BME280;39159;45.634;9.420;2024-03-22T04:51:44;99401.19;;;10.00;100.00
53270;BME280;39159;45.634;9.420;2024-03-22T04:54:10;99395.72;;;10.00;100.00
53270;BME280;39159;45.634;9.420;2024-03-22T04:56:35;99394.63;;;10.01;100.00
53270;BME280;39159;45.634;9.420;2024-03-22T04:59:00;99397.06;;;10.02;100.00
53270;BME280;39159;45.634;9.420;2024-03-22T05:01:26;99401.09;;;10.05;100.00
53270;BME280;39159;45.634;9.420;2024-03-22T05:03:51;99403.53;;;10.06;100.00
53270;BME280;39159;45.634;9.420;2024-03-22T05:06:17;99400.09;;;10.01;100.00
53270;BME280;39159;45.634;9.420;2024-03-22T05:08:42;99408.56;;;9.99;100.00
53270;BME280;39159;45.634;9.420;2024-03-22T05:11:08;99389.31;;;9.90;100.00
53270;BME280;39159;45.634;9.420;2024-03-22T05:13:33;99399.56;;;9.99;100.00
53270;BME280;39159;45.634;9.420;2024-03-22T05:15:58;99404.63;;;9.86;100.00
53270;BME280;39159;45.634;9.420;2024-03-22T05:18:24;99405.66;;;9.90;100.00
53270;BME280;39159;45.634;9.420;2024-03-22T05:20:49;99410.84;;;9.92;100.00
53270;BME280;39159;45.634;9.420;2024-03-22T05:23:15;99414.59;;;9.96;100.00
53270;BME280;39159;45.634;9.420;2024-03-22T05:25:41;99407.28;;;9.91;100.00
53270;BME280;39159;45.634;9.420;2024-03-22T05:28:07;99417.63;;;9.94;100.00
53270;BME280;39159;45.634;9.420;2024-03-22T05:30:33;99415.09;;;9.98;100.00
53270;BME280;39159;45.634;9.420;2024-03-22T05:32:58;99401.34;;;10.08;100.00
53270;BME280;39159;45.634;9.420;2024-03-22T05:35:24;99421.63;;;10.21;100.00
53270;BME280;39159;45.634;9.420;2024-03-22T05:37:49;99414.66;;;10.53;100.00
53270;BME280;39159;45.634;9.420;2024-03-22T05:40:15;99420.25;;;10.62;100.00
53270;BME280;39159;45.634;9.420;2024-03-22T05:42:41;99415.44;;;10.72;100.00
53270;BME280;39159;45.634;9.420;2024-03-22T05:45:07;99413.28;;;10.88;100.00
53270;BME280;39159;45.634;9.420;2024-03-22T05:47:33;99419.53;;;10.89;100.00
53270;BME280;39159;45.634;9.420;2024-03-22T05:49:59;99421.72;;;11.06;100.00
53270;BME280;39159;45.634;9.420;2024-03-22T05:52:24;99412.50;;;11.02;100.00
53270;BME280;39159;45.634;9.420;2024-03-22T05:54:50;99419.09;;;11.01;100.00
53270;BME280;39159;45.634;9.420;2024-03-22T05:57:15;99419.50;;;11.08;100.00
53270;BME280;39159;45.634;9.420;2024-03-22T05:59:40;99417.31;;;11.24;100.00
53270;BME280;39159;45.634;9.420;2024-03-22T06:02:07;99423.31;;;11.39;100.00
53270;BME280;39159;45.634;9.420;2024-03-22T06:04:32;99424.84;;;11.46;100.00
53270;BME280;39159;45.634;9.420;2024-03-22T06:06:57;99423.78;;;11.28;100.00
53270;BME280;39159;45.634;9.420;2024-03-22T06:09:26;99427.03;;;11.30;100.00
53270;BME280;39159;45.634;9.420;2024-03-22T06:12:00;99431.34;;;11.17;100.00
53270;BME280;39159;45.634;9.420;2024-03-22T06:14:27;99431.25;;;11.22;100.00
53270;BME280;39159;45.634;9.420;2024-03-22T06:16:52;99427.59;;;11.13;100.00
53270;BME280;39159;45.634;9.420;2024-03-22T06:19:18;99434.34;;;11.02;100.00
53270;BME280;39159;45.634;9.420;2024-03-22T06:21:43;99429.78;;;10.97;100.00
53270;BME280;39159;45.634;9.420;2024-03-22T06:24:09;99431.63;;;11.02;100.00
53270;BME280;39159;45.634;9.420;2024-03-22T06:26:34;99436.69;;;11.08;100.00
53270;BME280;39159;45.634;9.420;2024-03-22T06:28:59;99429.31;;;11.09;100.00
53270;BME280;39159;45.634;9.420;2024-03-22T06:31:25;99434.69;;;11.14;100.00
53270;BME280;39159;45.634;9.420;2024-03-22T06:33:50;99432.38;;;11.21;100.00
53270;BME280;39159;45.634;9.420;2024-03-22T06:36:15;99428.94;;;11.29;100.00
53270;BME280;39159;45.634;9.420;2024-03-22T06:38:41;99428.53;;;11.36;100.00
53270;BME280;39159;45.634;9.420;2024-03-22T06:41:06;99435.34;;;11.38;100.00
53270;BME280;39159;45.634;9.420;2024-03-22T06:43:31;99428.97;;;11.43;100.00
53270;BME280;39159;45.634;9.420;2024-03-22T06:45:57;99435.47;;;11.47;100.00
53270;BME280;39159;45.634;9.420;2024-03-22T06:48:23;99433.44;;;11.53;100.00
53270;BME280;39159;45.634;9.420;2024-03-22T06:50:49;99431.53;;;11.67;100.00
53270;BME280;39159;45.634;9.420;2024-03-22T06:53:14;99437.81;;;11.81;100.00
53270;BME280;39159;45.634;9.420;2024-03-22T06:55:39;99432.56;;;11.99;100.00
53270;BME280;39159;45.634;9.420;2024-03-22T06:58:05;99437.38;;;12.16;100.00
53270;BME280;39159;45.634;9.420;2024-03-22T07:00:30;99433.25;;;12.18;100.00
53270;BME280;39159;45.634;9.420;2024-03-22T07:02:56;99433.94;;;12.24;100.00
53270;BME280;39159;45.634;9.420;2024-03-22T07:05:21;99425.81;;;12.33;100.00
53270;BME280;39159;45.634;9.420;2024-03-22T07:07:47;99425.41;;;12.39;100.00
53270;BME280;39159;45.634;9.420;2024-03-22T07:10:12;99430.69;;;12.22;100.00
53270;BME280;39159;45.634;9.420;2024-03-22T07:12:38;99427.03;;;12.27;100.00
53270;BME280;39159;45.634;9.420;2024-03-22T07:15:04;99428.25;;;12.34;100.00
53270;BME280;39159;45.634;9.420;2024-03-22T07:17:30;99430.16;;;12.48;100.00
53270;BME280;39159;45.634;9.420;2024-03-22T07:19:55;99431.91;;;12.66;100.00
53270;BME280;39159;45.634;9.420;2024-03-22T07:22:21;99422.09;;;12.65;100.00
53270;BME280;39159;45.634;9.420;2024-03-22T07:24:47;99423.53;;;12.85;100.00
53270;BME280;39159;45.634;9.420;2024-03-22T07:27:13;99422.44;;;12.95;100.00
53270;BME280;39159;45.634;9.420;2024-03-22T07:29:41;99427.91;;;13.17;100.00
53270;BME280;39159;45.634;9.420;2024-03-22T07:32:07;99422.09;;;13.41;100.00
53270;BME280;39159;45.634;9.420;2024-03-22T07:34:32;99423.34;;;13.66;100.00
53270;BME280;39159;45.634;9.420;2024-03-22T07:36:58;99420.50;;;13.89;100.00
53270;BME280;39159;45.634;9.420;2024-03-22T07:39:23;99425.09;;;14.20;100.00
53270;BME280;39159;45.634;9.420;2024-03-22T07:41:49;99427.88;;;14.46;100.00
53270;BME280;39159;45.634;9.420;2024-03-22T07:44:15;99426.59;;;14.52;100.00
53270;BME280;39159;45.634;9.420;2024-03-22T07:46:43;99423.72;;;14.75;100.00
53270;BME280;39159;45.634;9.420;2024-03-22T07:49:09;99428.41;;;14.65;100.00
53270;BME280;39159;45.634;9.420;2024-03-22T07:51:34;99426.78;;;14.82;100.00
53270;BME280;39159;45.634;9.420;2024-03-22T07:53:59;99436.97;;;14.90;100.00
53270;BME280;39159;45.634;9.420;2024-03-22T07:56:25;99426.75;;;15.17;100.00
53270;BME280;39159;45.634;9.420;2024-03-22T07:58:50;99434.75;;;15.39;100.00
53270;BME280;39159;45.634;9.420;2024-03-22T08:01:15;99431.25;;;15.68;100.00
53270;BME280;39159;45.634;9.420;2024-03-22T08:03:42;99426.19;;;15.88;100.00
53270;BME280;39159;45.634;9.420;2024-03-22T08:06:08;99427.91;;;16.01;100.00
53270;BME280;39159;45.634;9.420;2024-03-22T08:08:33;99430.09;;;16.16;100.00
53270;BME280;39159;45.634;9.420;2024-03-22T08:10:58;99430.56;;;16.19;100.00
53270;BME280;39159;45.634;9.420;2024-03-22T08:13:24;99429.72;;;16.18;100.00
53270;BME280;39159;45.634;9.420;2024-03-22T08:15:49;99431.50;;;16.44;100.00
53270;BME280;39159;45.634;9.420;2024-03-22T08:18:14;99432.69;;;16.76;100.00
53270;BME280;39159;45.634;9.420;2024-03-22T08:20:40;99429.72;;;16.90;100.00
53270;BME280;39159;45.634;9.420;2024-03-22T08:23:05;99428.19;;;17.13;100.00
53270;BME280;39159;45.634;9.420;2024-03-22T08:25:31;99432.63;;;17.39;100.00
53270;BME280;39159;45.634;9.420;2024-03-22T08:27:57;99421.53;;;17.27;100.00
53270;BME280;39159;45.634;9.420;2024-03-22T08:30:24;99427.56;;;17.41;100.00
53270;BME280;39159;45.634;9.420;2024-03-22T08:32:50;99430.22;;;17.50;100.00
53270;BME280;39159;45.634;9.420;2024-03-22T08:35:16;99426.09;;;17.56;100.00
53270;BME280;39159;45.634;9.420;2024-03-22T08:37:41;99429.19;;;17.54;100.00
53270;BME280;39159;45.634;9.420;2024-03-22T08:40:07;99438.31;;;17.79;100.00
53270;BME280;39159;45.634;9.420;2024-03-22T08:42:32;99428.94;;;17.35;99.94
53270;BME280;39159;45.634;9.420;2024-03-22T08:44:58;99436.03;;;17.36;99.15
53270;BME280;39159;45.634;9.420;2024-03-22T08:47:23;99437.03;;;17.65;98.90
53270;BME280;39159;45.634;9.420;2024-03-22T08:49:48;99428.06;;;17.80;95.61
53270;BME280;39159;45.634;9.420;2024-03-22T08:52:14;99418.91;;;17.88;96.90
53270;BME280;39159;45.634;9.420;2024-03-22T08:54:40;99426.66;;;18.35;94.53
53270;BME280;39159;45.634;9.420;2024-03-22T08:57:05;99417.72;;;18.67;93.21
53270;BME280;39159;45.634;9.420;2024-03-22T08:59:30;99420.88;;;18.53;90.34
53270;BME280;39159;45.634;9.420;2024-03-22T09:01:56;99422.53;;;18.82;87.44
53270;BME280;39159;45.634;9.420;2024-03-22T09:04:21;99421.47;;;18.87;87.86
53270;BME280;39159;45.634;9.420;2024-03-22T09:06:46;99423.25;;;18.79;86.23
53270;BME280;39159;45.634;9.420;2024-03-22T09:09:12;99427.63;;;19.08;87.24
53270;BME280;39159;45.634;9.420;2024-03-22T09:11:37;99420.88;;;19.37;84.43
53270;BME280;39159;45.634;9.420;2024-03-22T09:14:03;99422.31;;;19.47;80.44
53270;BME280;39159;45.634;9.420;2024-03-22T09:16:29;99415.75;;;19.08;79.89
53270;BME280;39159;45.634;9.420;2024-03-22T09:18:55;99415.03;;;19.11;78.73
53270;BME280;39159;45.634;9.420;2024-03-22T09:21:21;99406.28;;;19.09;80.32
53270;BME280;39159;45.634;9.420;2024-03-22T09:23:46;99410.81;;;19.61;78.55
53270;BME280;39159;45.634;9.420;2024-03-22T09:26:11;99414.03;;;19.95;76.20
53270;BME280;39159;45.634;9.420;2024-03-22T09:28:37;99406.97;;;19.97;75.26
53270;BME280;39159;45.634;9.420;2024-03-22T09:31:06;99410.91;;;19.80;77.20
53270;BME280;39159;45.634;9.420;2024-03-22T09:33:35;99405.72;;;19.95;75.72
53270;BME280;39159;45.634;9.420;2024-03-22T09:36:01;99393.72;;;20.06;73.64
53270;BME280;39159;45.634;9.420;2024-03-22T09:38:26;99393.78;;;20.26;73.81
53270;BME280;39159;45.634;9.420;2024-03-22T09:40:52;99400.84;;;20.59;72.26
53270;BME280;39159;45.634;9.420;2024-03-22T09:43:22;99398.53;;;20.45;69.56
53270;BME280;39159;45.634;9.420;2024-03-22T09:45:49;99386.97;;;20.78;63.83
53270;BME280;39159;45.634;9.420;2024-03-22T09:48:18;99389.06;;;20.85;63.02
53270;BME280;39159;45.634;9.420;2024-03-22T09:50:45;99385.69;;;20.56;60.59
53270;BME280;39159;45.634;9.420;2024-03-22T09:53:12;99383.09;;;20.83;61.01
53270;BME280;39159;45.634;9.420;2024-03-22T09:55:38;99387.53;;;20.87;61.93
53270;BME280;39159;45.634;9.420;2024-03-22T09:58:05;99384.44;;;21.12;59.22
53270;BME280;39159;45.634;9.420;2024-03-22T10:00:30;99377.41;;;21.18;56.10
53270;BME280;39159;45.634;9.420;2024-03-22T10:02:56;99381.25;;;21.10;55.21
53270;BME280;39159;45.634;9.420;2024-03-22T10:05:23;99371.22;;;21.05;55.51
53270;BME280;39159;45.634;9.420;2024-03-22T10:07:49;99376.69;;;20.59;56.80
53270;BME280;39159;45.634;9.420;2024-03-22T10:10:15;99379.28;;;20.52;58.04
53270;BME280;39159;45.634;9.420;2024-03-22T10:12:40;99372.72;;;20.80;53.24
53270;BME280;39159;45.634;9.420;2024-03-22T10:15:06;99368.38;;;20.79;50.92
53270;BME280;39159;45.634;9.420;2024-03-22T10:17:35;99367.19;;;20.80;52.10
53270;BME280;39159;45.634;9.420;2024-03-22T10:20:01;99363.75;;;20.67;51.50
53270;BME280;39159;45.634;9.420;2024-03-22T10:22:26;99371.94;;;20.79;51.22
53270;BME280;39159;45.634;9.420;2024-03-22T10:24:52;99368.38;;;20.79;52.61
53270;BME280;39159;45.634;9.420;2024-03-22T10:27:18;99371.28;;;20.86;53.33
53270;BME280;39159;45.634;9.420;2024-03-22T10:29:44;99362.75;;;21.41;51.68
53270;BME280;39159;45.634;9.420;2024-03-22T10:32:09;99363.63;;;21.45;46.96
53270;BME280;39159;45.634;9.420;2024-03-22T10:34:35;99361.47;;;21.58;47.49
53270;BME280;39159;45.634;9.420;2024-03-22T10:37:00;99359.75;;;21.07;48.66
53270;BME280;39159;45.634;9.420;2024-03-22T10:39:26;99355.50;;;21.36;48.54
53270;BME280;39159;45.634;9.420;2024-03-22T10:41:52;99350.94;;;21.44;48.33
53270;BME280;39159;45.634;9.420;2024-03-22T10:44:18;99349.50;;;21.53;47.77
53270;BME280;39159;45.634;9.420;2024-03-22T10:46:45;99355.84;;;21.54;47.61
53270;BME280;39159;45.634;9.420;2024-03-22T10:49:20;99347.16;;;21.56;47.30
53270;BME280;39159;45.634;9.420;2024-03-22T10:51:50;99345.47;;;21.51;47.99
53270;BME280;39159;45.634;9.420;2024-03-22T10:54:22;99338.31;;;21.27;47.37
53270;BME280;39159;45.634;9.420;2024-03-22T10:56:50;99343.34;;;21.67;47.60
53270;BME280;39159;45.634;9.420;2024-03-22T10:59:19;99338.75;;;21.79;48.27
53270;BME280;39159;45.634;9.420;2024-03-22T11:01:46;99338.50;;;21.87;46.52
53270;BME280;39159;45.634;9.420;2024-03-22T11:04:11;99340.00;;;21.81;46.18
53270;BME280;39159;45.634;9.420;2024-03-22T11:06:37;99322.88;;;21.29;48.27
53270;BME280;39159;45.634;9.420;2024-03-22T11:09:02;99330.81;;;21.50;46.86
53270;BME280;39159;45.634;9.420;2024-03-22T11:11:31;99332.75;;;21.73;47.79
53270;BME280;39159;45.634;9.420;2024-03-22T11:14:02;99324.50;;;21.80;47.76
53270;BME280;39159;45.634;9.420;2024-03-22T11:16:28;99324.75;;;21.98;47.80
53270;BME280;39159;45.634;9.420;2024-03-22T11:18:54;99314.44;;;21.99;46.20
53270;BME280;39159;45.634;9.420;2024-03-22T11:21:20;99321.28;;;22.05;46.36
53270;BME280;39159;45.634;9.420;2024-03-22T11:23:45;99316.00;;;21.96;45.00
53270;BME280;39159;45.634;9.420;2024-03-22T11:26:11;99321.63;;;22.00;44.20
53270;BME280;39159;45.634;9.420;2024-03-22T11:28:38;99312.31;;;22.19;44.56
53270;BME280;39159;45.634;9.420;2024-03-22T11:31:03;99316.16;;;22.07;46.43
53270;BME280;39159;45.634;9.420;2024-03-22T11:33:30;99308.50;;;21.70;45.93
53270;BME280;39159;45.634;9.420;2024-03-22T11:35:58;99296.19;;;21.21;48.00
53270;BME280;39159;45.634;9.420;2024-03-22T11:38:24;99299.13;;;21.55;47.69
53270;BME280;39159;45.634;9.420;2024-03-22T11:40:52;99291.94;;;21.50;46.81
53270;BME280;39159;45.634;9.420;2024-03-22T11:43:18;99289.25;;;21.58;46.24
53270;BME280;39159;45.634;9.420;2024-03-22T11:45:44;99281.41;;;21.90;45.56
53270;BME280;39159;45.634;9.420;2024-03-22T11:48:09;99280.53;;;21.86;45.43
53270;BME280;39159;45.634;9.420;2024-03-22T11:50:37;99270.78;;;21.99;48.14
53270;BME280;39159;45.634;9.420;2024-03-22T11:53:05;99272.97;;;22.13;45.19
53270;BME280;39159;45.634;9.420;2024-03-22T11:55:31;99266.50;;;21.75;47.72
53270;BME280;39159;45.634;9.420;2024-03-22T11:57:59;99257.25;;;21.41;47.91
53270;BME280;39159;45.634;9.420;2024-03-22T12:00:25;99263.66;;;21.45;49.22
53270;BME280;39159;45.634;9.420;2024-03-22T12:02:52;99254.19;;;21.46;46.81
53270;BME280;39159;45.634;9.420;2024-03-22T12:05:17;99244.72;;;21.81;48.04
53270;BME280;39159;45.634;9.420;2024-03-22T12:07:44;99241.72;;;21.93;48.32
53270;BME280;39159;45.634;9.420;2024-03-22T12:10:09;99234.16;;;21.90;47.33
53270;BME280;39159;45.634;9.420;2024-03-22T12:12:35;99230.13;;;21.87;48.34
53270;BME280;39159;45.634;9.420;2024-03-22T12:15:01;99227.19;;;21.73;49.81
53270;BME280;39159;45.634;9.420;2024-03-22T12:17:27;99218.13;;;21.80;49.60
53270;BME280;39159;45.634;9.420;2024-03-22T12:19:52;99213.56;;;21.94;48.23
53270;BME280;39159;45.634;9.420;2024-03-22T12:22:18;99214.59;;;21.83;46.83
53270;BME280;39159;45.634;9.420;2024-03-22T12:24:43;99221.06;;;21.90;47.60
53270;BME280;39159;45.634;9.420;2024-03-22T12:27:09;99223.50;;;21.96;46.09
53270;BME280;39159;45.634;9.420;2024-03-22T12:29:35;99219.47;;;21.59;46.90
53270;BME280;39159;45.634;9.420;2024-03-22T12:32:01;99218.97;;;21.53;47.44
53270;BME280;39159;45.634;9.420;2024-03-22T12:34:27;99213.34;;;21.77;47.71
53270;BME280;39159;45.634;9.420;2024-03-22T12:36:54;99218.63;;;21.59;47.99
53270;BME280;39159;45.634;9.420;2024-03-22T12:39:20;99209.38;;;21.78;45.89
53270;BME280;39159;45.634;9.420;2024-03-22T12:41:45;99214.88;;;21.44;46.91
53270;BME280;39159;45.634;9.420;2024-03-22T12:44:11;99206.63;;;21.51;48.01
53270;BME280;39159;45.634;9.420;2024-03-22T12:46:36;99191.44;;;21.41;48.73